createdAt,value
2022-08-17T00:02:25.226Z,20.33
2022-08-17T00:05:34.928Z,20.33
2022-08-17T00:08:40.179Z,20.26
2022-08-17T00:11:43.681Z,20.17
2022-08-17T00:15:06.328Z,20.18
2022-08-17T00:19:01.551Z,20.18
2022-08-17T00:22:29.615Z,20.16
2022-08-17T00:25:00.198Z,20.20
2022-08-17T00:28:03.789Z,20.20
2022-08-17T00:31:08.372Z,20.19
2022-08-17T00:34:10.646Z,20.19
2022-08-17T00:37:13.130Z,20.11
2022-08-17T00:40:15.604Z,20.08
2022-08-17T00:43:27.450Z,20.04
2022-08-17T00:46:31.959Z,20.02
2022-08-17T00:49:34.491Z,20.01
2022-08-17T00:52:39.200Z,20.02
2022-08-17T00:55:41.854Z,20.00
2022-08-17T00:58:44.672Z,19.99
2022-08-17T01:01:49.367Z,20.05
2022-08-17T01:04:52.897Z,20.03
2022-08-17T01:07:55.739Z,19.99
2022-08-17T01:11:02.256Z,19.94
2022-08-17T01:14:04.964Z,19.89
2022-08-17T01:17:08.107Z,19.86
2022-08-17T01:20:11.046Z,19.82
2022-08-17T01:23:20.813Z,19.85
2022-08-17T01:26:23.825Z,19.82
2022-08-17T01:29:26.671Z,19.83
2022-08-17T01:32:30.433Z,19.77
2022-08-17T01:35:32.981Z,19.74
2022-08-17T01:38:36.187Z,19.69
2022-08-17T01:41:40.955Z,19.63
2022-08-17T01:44:43.612Z,19.58
2022-08-17T01:47:46.099Z,19.53
2022-08-17T01:50:49.676Z,19.62
2022-08-17T01:53:54.393Z,19.48
2022-08-17T01:56:57.109Z,19.41
2022-08-17T01:59:59.904Z,19.39
2022-08-17T02:03:11.968Z,19.33
2022-08-17T02:06:27.074Z,19.31
2022-08-17T02:09:30.370Z,19.27
2022-08-17T02:12:38.381Z,19.26
2022-08-17T02:15:42.282Z,19.20
2022-08-17T02:18:46.413Z,19.19
2022-08-17T02:21:50.170Z,19.20
2022-08-17T02:25:00.888Z,19.19
2022-08-17T02:28:04.630Z,19.17
2022-08-17T02:31:09.372Z,19.16
2022-08-17T02:34:11.846Z,19.13
2022-08-17T02:37:17.316Z,19.13
2022-08-17T02:40:36.185Z,19.11
2022-08-17T02:43:39.229Z,19.10
2022-08-17T02:46:41.501Z,19.11
2022-08-17T02:49:54.461Z,19.08
2022-08-17T02:53:01.670Z,19.05
2022-08-17T02:56:05.274Z,19.00
2022-08-17T02:59:07.556Z,18.99
2022-08-17T03:02:11.267Z,18.93
2022-08-17T03:05:15.020Z,18.91
2022-08-17T03:08:18.134Z,18.87
2022-08-17T03:11:20.498Z,18.82
2022-08-17T03:14:26.257Z,18.81
2022-08-17T03:17:28.845Z,18.79
2022-08-17T03:20:33.485Z,18.76
2022-08-17T03:23:41.152Z,18.72
2022-08-17T03:26:43.893Z,18.72
2022-08-17T03:29:46.313Z,18.68
2022-08-17T03:32:50.401Z,18.69
2022-08-17T03:35:52.816Z,18.71
2022-08-17T03:38:55.406Z,18.71
2022-08-17T03:42:07.759Z,18.69
2022-08-17T03:45:15.108Z,18.68
2022-08-17T03:48:36.528Z,18.66
2022-08-17T03:51:57.784Z,18.74
2022-08-17T03:55:18.597Z,18.70
2022-08-17T03:58:21.247Z,18.66
2022-08-17T04:01:23.667Z,18.66
2022-08-17T04:04:27.584Z,18.75
2022-08-17T04:07:30.835Z,18.77
2022-08-17T04:10:41.274Z,18.77
2022-08-17T04:13:47.604Z,18.80
2022-08-17T04:16:50.173Z,18.85
2022-08-17T04:19:53.145Z,18.88
2022-08-17T04:23:03.543Z,18.97
2022-08-17T04:26:06.130Z,19.06
2022-08-17T04:29:08.639Z,19.10
2022-08-17T04:32:10.899Z,19.19
2022-08-17T04:35:18.059Z,19.26
2022-08-17T04:38:22.168Z,19.35
2022-08-17T04:41:43.661Z,19.40
2022-08-17T04:44:45.933Z,19.49
2022-08-17T04:47:50.432Z,19.56
2022-08-17T04:50:53.004Z,19.65
2022-08-17T04:54:00.147Z,19.75
2022-08-17T04:57:02.507Z,19.87
2022-08-17T05:00:06.082Z,20.00
2022-08-17T05:03:09.344Z,20.11
2022-08-17T05:06:11.959Z,20.16
2022-08-17T05:09:14.285Z,20.20
2022-08-17T05:12:16.991Z,20.33
2022-08-17T05:15:19.344Z,20.43
2022-08-17T05:18:22.532Z,20.52
2022-08-17T05:21:27.335Z,20.69
2022-08-17T05:24:38.303Z,20.80
2022-08-17T05:27:41.545Z,20.90
2022-08-17T05:30:46.196Z,20.99
2022-08-17T05:33:51.876Z,21.03
2022-08-17T05:36:54.418Z,21.23
2022-08-17T05:39:56.801Z,21.33
2022-08-17T05:43:17.665Z,21.44
2022-08-17T05:46:20.019Z,21.60
2022-08-17T05:49:27.114Z,21.79
2022-08-17T05:52:32.417Z,21.93
2022-08-17T05:55:41.943Z,22.10
2022-08-17T05:58:56.356Z,22.26
2022-08-17T06:02:18.958Z,22.44
2022-08-17T06:05:21.556Z,22.68
2022-08-17T06:08:32.948Z,22.85
2022-08-17T06:11:41.729Z,23.35
2022-08-17T06:14:52.389Z,23.66
2022-08-17T06:17:57.463Z,23.82
2022-08-17T06:21:02.878Z,24.00
2022-08-17T06:24:08.256Z,24.24
2022-08-17T06:27:13.411Z,24.38
2022-08-17T06:30:20.300Z,24.80
2022-08-17T06:33:26.087Z,25.15
2022-08-17T06:36:29.366Z,25.41
2022-08-17T06:39:31.709Z,25.68
2022-08-17T06:43:06.180Z,26.26
2022-08-17T06:46:12.260Z,28.35
2022-08-17T06:49:21.969Z,34.01
2022-08-17T06:52:45.901Z,37.17
2022-08-17T06:56:06.786Z,39.66
2022-08-17T06:59:13.980Z,43.12
2022-08-17T07:02:20.107Z,42.15
2022-08-17T07:05:36.562Z,43.51
2022-08-17T07:08:49.854Z,43.83
2022-08-17T07:11:58.575Z,44.71
2022-08-17T07:15:08.049Z,46.75
2022-08-17T07:18:10.875Z,47.54
2022-08-17T07:21:38.579Z,48.63
2022-08-17T07:24:47.285Z,48.25
2022-08-17T07:27:55.935Z,49.11
2022-08-17T07:30:59.944Z,49.55
2022-08-17T07:34:07.916Z,49.94
2022-08-17T07:37:10.600Z,49.10
2022-08-17T07:40:22.768Z,49.81
2022-08-17T07:43:26.677Z,49.10
2022-08-17T07:46:52.931Z,48.77
2022-08-17T07:49:56.164Z,49.17
2022-08-17T07:53:14.921Z,49.91
2022-08-17T07:56:34.707Z,47.83
2022-08-17T07:59:41.252Z,47.08
2022-08-17T08:02:47.585Z,42.49
2022-08-17T08:05:58.439Z,37.80
2022-08-17T08:09:01.830Z,34.29
2022-08-17T08:12:24.740Z,33.77
2022-08-17T08:15:44.984Z,33.02
2022-08-17T08:18:55.517Z,33.17
2022-08-17T08:22:10.227Z,33.52
2022-08-17T08:25:22.481Z,32.91
2022-08-17T08:28:37.233Z,33.97
2022-08-17T08:31:56.263Z,35.84
2022-08-17T08:35:03.598Z,39.94
2022-08-17T08:38:33.589Z,44.39
2022-08-17T08:42:14.737Z,45.60
2022-08-17T08:45:38.225Z,46.92
2022-08-17T08:48:56.476Z,45.52
2022-08-17T08:52:02.489Z,41.46
2022-08-17T08:55:08.776Z,37.24
2022-08-17T08:58:30.695Z,35.42
2022-08-17T09:01:46.059Z,33.94
2022-08-17T09:05:15.505Z,33.98
2022-08-17T09:08:24.557Z,33.66
2022-08-17T09:12:01.901Z,33.74
2022-08-17T09:15:13.141Z,33.82
2022-08-17T09:18:59.087Z,33.65
2022-08-17T09:21:48.168Z,33.74
2022-08-17T09:24:57.154Z,34.01
2022-08-17T09:28:03.739Z,33.55
2022-08-17T09:31:08.532Z,32.86
2022-08-17T09:34:16.151Z,32.75
2022-08-17T09:37:21.713Z,33.02
2022-08-17T09:40:30.907Z,33.05
2022-08-17T09:43:33.475Z,33.35
2022-08-17T09:47:08.569Z,33.24
2022-08-17T09:51:01.588Z,33.10
2022-08-17T09:53:52.362Z,33.66
2022-08-17T09:57:28.042Z,34.00
2022-08-17T10:00:27.632Z,34.01
2022-08-17T10:03:51.702Z,33.63
2022-08-17T10:07:12.659Z,33.55
2022-08-17T10:10:21.043Z,33.98
2022-08-17T10:13:53.499Z,34.25
2022-08-17T10:17:00.644Z,33.90
2022-08-17T10:20:12.472Z,33.98
2022-08-17T10:23:40.933Z,34.14
2022-08-17T10:26:56.142Z,34.02
2022-08-17T10:30:04.497Z,34.60
2022-08-17T10:33:15.402Z,35.32
2022-08-17T10:36:22.592Z,35.43
2022-08-17T10:39:51.972Z,35.56
2022-08-17T10:43:17.294Z,35.30
2022-08-17T10:46:30.051Z,35.22
2022-08-17T10:49:34.607Z,35.38
2022-08-17T10:52:42.840Z,34.73
2022-08-17T10:56:05.672Z,34.36
2022-08-17T10:59:08.505Z,34.17
2022-08-17T11:02:14.210Z,33.25
2022-08-17T11:05:20.647Z,33.51
2022-08-17T11:08:57.521Z,33.82
2022-08-17T11:12:19.663Z,34.30
2022-08-17T11:15:38.775Z,34.54
2022-08-17T11:18:50.845Z,34.68
2022-08-17T11:22:33.353Z,35.10
2022-08-17T11:25:43.926Z,35.66
2022-08-17T11:28:50.386Z,35.93
2022-08-17T11:32:01.546Z,35.31
2022-08-17T11:35:13.618Z,35.39
2022-08-17T11:38:28.479Z,35.11
2022-08-17T11:41:49.915Z,35.50
2022-08-17T11:44:57.940Z,35.28
2022-08-17T11:48:28.317Z,34.97
2022-08-17T11:51:49.871Z,35.22
2022-08-17T11:54:52.455Z,35.07
2022-08-17T11:57:59.776Z,34.66
2022-08-17T12:01:03.857Z,35.09
2022-08-17T12:04:24.468Z,34.73
2022-08-17T12:07:27.031Z,34.55
2022-08-17T12:10:35.481Z,34.96
2022-08-17T12:13:49.747Z,34.62
2022-08-17T12:17:05.300Z,34.52
2022-08-17T12:20:18.280Z,35.02
2022-08-17T12:23:41.719Z,34.93
2022-08-17T12:26:51.772Z,34.99
2022-08-17T12:29:55.485Z,34.65
2022-08-17T12:32:58.210Z,35.06
2022-08-17T12:36:03.304Z,35.21
2022-08-17T12:39:13.310Z,35.45
2022-08-17T12:42:25.681Z,35.66
2022-08-17T12:45:29.756Z,35.25
2022-08-17T12:48:34.327Z,35.14
2022-08-17T12:51:36.677Z,35.11
2022-08-17T12:54:43.746Z,35.27
2022-08-17T12:57:47.571Z,35.02
2022-08-17T13:01:02.552Z,35.01
2022-08-17T13:04:05.986Z,34.48
2022-08-17T13:07:08.613Z,33.79
2022-08-17T13:10:17.341Z,33.51
2022-08-17T13:13:22.751Z,33.52
2022-08-17T13:16:27.188Z,33.94
2022-08-17T13:19:40.486Z,34.40
2022-08-17T13:22:52.019Z,34.35
2022-08-17T13:26:02.542Z,34.50
2022-08-17T13:29:07.668Z,34.09
2022-08-17T13:32:13.566Z,33.73
2022-08-17T13:35:29.529Z,33.84
2022-08-17T13:38:35.946Z,33.93
2022-08-17T13:41:41.013Z,34.13
2022-08-17T13:44:43.696Z,34.21
2022-08-17T13:47:46.153Z,34.26
2022-08-17T13:50:59.583Z,34.54
2022-08-17T13:54:04.975Z,34.64
2022-08-17T13:57:18.086Z,34.53
2022-08-17T14:00:30.238Z,34.53
2022-08-17T14:03:32.852Z,34.47
2022-08-17T14:06:54.418Z,34.54
2022-08-17T14:10:12.315Z,34.79
2022-08-17T14:13:15.413Z,34.69
2022-08-17T14:16:18.174Z,34.61
2022-08-17T14:19:21.996Z,34.43
2022-08-17T14:22:27.573Z,34.46
2022-08-17T14:25:32.383Z,34.41
2022-08-17T14:28:36.513Z,34.35
2022-08-17T14:31:39.049Z,34.57
2022-08-17T14:34:42.207Z,34.55
2022-08-17T14:37:45.772Z,34.52
2022-08-17T14:40:48.756Z,34.67
2022-08-17T14:43:53.451Z,34.66
2022-08-17T14:46:56.079Z,34.58
2022-08-17T14:49:59.658Z,34.51
2022-08-17T14:53:03.916Z,34.48
2022-08-17T14:56:06.409Z,34.51
2022-08-17T14:59:09.430Z,34.49
2022-08-17T15:02:12.070Z,34.48
2022-08-17T15:05:16.152Z,34.36
2022-08-17T15:08:19.562Z,34.26
2022-08-17T15:11:22.341Z,34.20
2022-08-17T15:14:24.692Z,34.16
2022-08-17T15:17:44.518Z,34.13
2022-08-17T15:20:49.333Z,34.00
2022-08-17T15:23:51.988Z,33.82
2022-08-17T15:26:54.370Z,33.63
2022-08-17T15:29:57.510Z,33.50
2022-08-17T15:33:00.766Z,33.57
2022-08-17T15:36:06.465Z,33.63
2022-08-17T15:39:08.999Z,33.53
2022-08-17T15:42:11.742Z,33.42
2022-08-17T15:45:16.537Z,33.52
2022-08-17T15:48:20.432Z,33.45
2022-08-17T15:51:24.622Z,33.35
2022-08-17T15:54:34.543Z,33.26
2022-08-17T15:57:38.547Z,33.19
2022-08-17T16:00:56.807Z,33.19
2022-08-17T16:04:26.754Z,33.02
2022-08-17T16:07:32.326Z,32.90
2022-08-17T16:10:36.098Z,32.86
2022-08-17T16:13:39.759Z,32.87
2022-08-17T16:16:42.415Z,32.81
2022-08-17T16:19:44.888Z,32.70
2022-08-17T16:22:48.737Z,32.54
2022-08-17T16:25:53.733Z,32.54
2022-08-17T16:28:57.758Z,32.54
2022-08-17T16:32:06.916Z,32.40
2022-08-17T16:35:11.170Z,32.32
2022-08-17T16:38:13.614Z,32.26
2022-08-17T16:41:36.252Z,32.26
2022-08-17T16:44:38.632Z,32.20
2022-08-17T16:47:42.031Z,32.06
2022-08-17T16:51:03.470Z,31.83
2022-08-17T16:54:07.503Z,31.64
2022-08-17T16:57:10.506Z,31.65
2022-08-17T17:00:15.095Z,31.49
2022-08-17T17:03:20.012Z,31.27
2022-08-17T17:06:44.964Z,31.08
2022-08-17T17:09:52.643Z,30.91
2022-08-17T17:13:01.985Z,30.67
2022-08-17T17:16:21.739Z,30.53
2022-08-17T17:19:43.391Z,30.43
2022-08-17T17:22:50.732Z,30.28
2022-08-17T17:26:08.691Z,30.25
2022-08-17T17:29:29.653Z,30.11
2022-08-17T17:32:50.167Z,29.92
2022-08-17T17:36:00.802Z,29.64
2022-08-17T17:39:06.567Z,29.52
2022-08-17T17:42:10.644Z,29.44
2022-08-17T17:45:25.886Z,29.17
2022-08-17T17:48:28.827Z,28.99
2022-08-17T17:52:09.112Z,28.84
2022-08-17T17:55:09.793Z,28.70
2022-08-17T17:58:13.348Z,28.48
2022-08-17T18:01:20.073Z,28.33
2022-08-17T18:04:30.116Z,28.16
2022-08-17T18:07:42.483Z,28.06
2022-08-17T18:11:00.615Z,27.91
2022-08-17T18:14:26.859Z,27.75
2022-08-17T18:17:31.155Z,27.56
2022-08-17T18:20:43.268Z,27.42
2022-08-17T18:24:00.066Z,27.28
2022-08-17T18:27:08.684Z,27.13
2022-08-17T18:30:14.665Z,26.98
2022-08-17T18:33:26.384Z,26.86
2022-08-17T18:36:32.618Z,26.76
2022-08-17T18:39:37.093Z,26.64
2022-08-17T18:42:40.006Z,26.59
2022-08-17T18:45:42.434Z,26.50
2022-08-17T18:48:59.060Z,26.42
2022-08-17T18:52:10.961Z,26.33
2022-08-17T18:55:15.351Z,26.25
2022-08-17T18:58:20.191Z,26.18
2022-08-17T19:01:23.130Z,26.12
2022-08-17T19:05:00.953Z,26.03
2022-08-17T19:08:21.802Z,25.94
2022-08-17T19:11:27.174Z,25.90
2022-08-17T19:14:30.182Z,25.79
2022-08-17T19:17:37.849Z,25.70
2022-08-17T19:20:47.547Z,25.62
2022-08-17T19:23:58.896Z,25.60
2022-08-17T19:27:18.048Z,25.56
2022-08-17T19:30:23.669Z,25.49
2022-08-17T19:33:26.763Z,25.39
2022-08-17T19:36:38.445Z,25.35
2022-08-17T19:39:41.208Z,25.27
2022-08-17T19:42:47.391Z,25.26
2022-08-17T19:45:58.311Z,25.16
2022-08-17T19:49:18.563Z,25.05
2022-08-17T19:52:27.063Z,25.12
2022-08-17T19:55:31.818Z,24.99
2022-08-17T19:58:34.441Z,24.95
2022-08-17T20:01:41.238Z,24.88
2022-08-17T20:04:45.372Z,24.82
2022-08-17T20:08:06.340Z,24.72
2022-08-17T20:11:20.350Z,24.68
2022-08-17T20:14:24.999Z,24.64
2022-08-17T20:17:31.118Z,24.58
2022-08-17T20:20:43.114Z,24.49
2022-08-17T20:23:54.029Z,24.41
2022-08-17T20:27:14.820Z,24.44
2022-08-17T20:30:23.251Z,24.38
2022-08-17T20:33:32.874Z,24.26
2022-08-17T20:36:36.955Z,24.18
2022-08-17T20:39:42.468Z,24.10
2022-08-17T20:42:45.108Z,24.05
2022-08-17T20:46:04.116Z,24.01
2022-08-17T20:49:14.933Z,23.97
2022-08-17T20:52:37.005Z,23.92
2022-08-17T20:55:52.626Z,24.00
2022-08-17T20:58:55.572Z,23.94
2022-08-17T21:02:17.557Z,23.92
2022-08-17T21:05:57.204Z,23.74
2022-08-17T21:09:21.346Z,23.63
2022-08-17T21:12:43.995Z,23.50
2022-08-17T21:15:59.450Z,23.41
2022-08-17T21:19:22.186Z,23.29
2022-08-17T21:22:31.764Z,23.23
2022-08-17T21:25:40.499Z,23.15
2022-08-17T21:29:00.693Z,23.13
2022-08-17T21:32:05.259Z,23.10
2022-08-17T21:35:11.098Z,23.06
2022-08-17T21:38:15.019Z,23.00
2022-08-17T21:41:19.128Z,22.96
2022-08-17T21:44:31.301Z,22.93
2022-08-17T21:47:34.926Z,22.84
2022-08-17T21:50:41.396Z,22.76
2022-08-17T21:53:50.073Z,22.72
2022-08-17T21:56:52.848Z,22.68
2022-08-17T21:59:57.488Z,22.61
2022-08-17T22:03:01.236Z,22.57
2022-08-17T22:06:27.677Z,22.49
2022-08-17T22:09:31.933Z,22.50
2022-08-17T22:12:34.684Z,22.42
2022-08-17T22:15:40.151Z,22.32
2022-08-17T22:18:43.426Z,22.25
2022-08-17T22:21:45.720Z,22.24
2022-08-17T22:24:55.471Z,22.18
2022-08-17T22:28:05.933Z,22.21
2022-08-17T22:31:10.355Z,22.16
2022-08-17T22:34:17.396Z,22.14
2022-08-17T22:37:28.534Z,22.16
2022-08-17T22:40:32.250Z,22.15
2022-08-17T22:43:37.603Z,22.03
2022-08-17T22:46:47.429Z,21.95
2022-08-17T22:49:53.167Z,21.92
2022-08-17T22:53:15.469Z,22.24
2022-08-17T22:56:38.851Z,22.33
2022-08-17T22:59:45.183Z,22.35
2022-08-17T23:03:05.677Z,22.44
2022-08-17T23:06:09.648Z,22.45
2022-08-17T23:09:12.363Z,22.33
2022-08-17T23:12:17.763Z,22.21
2022-08-17T23:15:20.560Z,22.11
2022-08-17T23:18:23.423Z,22.00
2022-08-17T23:21:27.640Z,21.90
2022-08-17T23:24:35.599Z,21.93
2022-08-17T23:27:38.258Z,21.89
2022-08-17T23:30:42.597Z,21.80
2022-08-17T23:33:45.843Z,21.78
2022-08-17T23:36:51.263Z,21.80
2022-08-17T23:39:55.592Z,21.71
2022-08-17T23:42:58.031Z,21.64
2022-08-17T23:46:03.594Z,21.67
2022-08-17T23:49:06.677Z,21.70
2022-08-17T23:52:14.981Z,21.58
2022-08-17T23:55:18.718Z,21.50
2022-08-17T23:58:21.303Z,21.43
